الصفحة الرئيسية
METAR-TAF:

METAR-TAF

مطار :

مطار البحرين الدولي

البحرين, البحرين

دائرة عرض: 26-16N, خط طول: 050-39E, ارتفاع: 2 متر

مراقبة الطقس الحالي

تاريخ ووقت الإصدار 29 دقيقة قبل الساعة 00:30UTC
ريح 10 عقدة من الغرب/الشمال الغربي
درجة الحرارة 33°درجة مئوية
الرطوبة 39%
ضغط 1001 hPa
الرؤية: 3000 متر
سماء صافية
غبار

METAR: OBBI 240030Z 29010KT 3000 DU SKC 33/17 Q1001 NOSIG

زمن: 03:59 (00:59 UTC)

توقعات

تاريخ ووقت الإصدار 30 دقيقة قبل الساعة 00:29UTC
التوقعات صالحة من24 الساعة 00 UTC إلى 25 الساعة 06 UTC
ريح 15 عقدة من الشمال/الشمال الغربي
الرؤية: 8000 متر
مؤقت
من 24 الساعة 00 UTC إلى 24 الساعة 05 UTC
الرؤية: 3000 متر
غبار
أصبح
من 24 الساعة 14 UTC إلى 24 الساعة 16 UTC
ريح 5 عقدة من الغرب/الشمال الغربي

TAF: OBBI 240029Z 2400/2506 34015KT 8000 NSC TEMPO 2400/2405 3000 DU BECMG 2414/2416 29005KT

أرصاد الطقس والتوقعات من أكثر من 4000 مطار (تقارير الطقس للمطار METAR والتنبؤ بالطقس بالمطارTAF).

المحطات المتاحة هي النقط الصفراء والحمراء على الخريطة.

حرك المؤشر فوق النقطة لمعرفة اسم المحطة.

ثم انقر لمعرفة أرصاد وتوقعات الطقس.

لتغيير الخارطة: اضغط على الأزرار الخضراء مع رمز الصليب الأسود للتكبير. على الزر الأخضر مع شرطة للتصغير، أو على الأسهم الخضراء للخرائط المجاورة.


METAR-TAF: